Time;durP1;ratioP1;P1;durP2;ratioP2;P2;SDS_P1;SDS_P2;PMS_P1;PMS_P2;Temp;Humidity;BMP_temperature;BMP_pressure;BME280_temperature;BME280_humidity;BME280_pressure;Samples;Min_cycle;Max_cycle;Signal;HPM_P1;HPM_P2
2022/02/03 00:00:39;;;;;;;5.43;2.20;;;;;;;;;;5008130;28;20133;-71
2022/02/03 00:03:17;;;;;;;5.22;2.53;;;;;;;;;;5006500;28;20462;-71
2022/02/03 00:05:49;;;;;;;6.65;2.55;;;;;;;;;;5006805;28;20084;-71
2022/02/03 00:08:36;;;;;;;4.65;2.33;;;;;;;;;;5006976;28;20521;-71
2022/02/03 00:11:26;;;;;;;3.55;2.25;;;;;;;;;;5004639;28;20054;-71
2022/02/03 00:16:57;;;;;;;6.32;2.30;;;;;;;;;;5005672;28;20149;-71
2022/02/03 00:22:20;;;;;;;4.05;2.13;;;;;;;;;;5007904;28;20513;-71
2022/02/03 00:24:55;;;;;;;5.30;2.40;;;;;;;;;;5007868;28;20050;-71
2022/02/03 00:27:23;;;;;;;;;;;;;;;;;;5007691;28;20581;-71
2022/02/03 00:29:58;;;;;;;4.13;1.98;;;;;;;;;;5007464;28;19983;-71
2022/02/03 00:32:53;;;;;;;5.32;2.28;;;;;;;;;;5006465;28;20137;-71
2022/02/03 00:38:26;;;;;;;5.43;2.50;;;;;;;;;;4994994;28;20513;-71
2022/02/03 00:49:56;;;;;;;4.28;2.33;;;;;;;;;;4965551;28;20201;-71
2022/02/03 00:52:26;;;;;;;4.57;2.03;;;;;;;;;;4998578;28;20046;-71
2022/02/03 00:54:56;;;;;;;5.68;2.40;;;;;;;;;;5007167;28;20045;-71
2022/02/03 00:57:28;;;;;;;6.30;2.40;;;;;;;;;;5008389;28;20144;-71
2022/02/03 01:00:03;;;;;;;4.80;2.10;;;;;;;;;;5008199;28;20100;-71
2022/02/03 01:02:33;;;;;;;8.35;3.03;;;;;;;;;;5006994;28;20425;-71
2022/02/03 01:05:03;;;;;;;5.90;2.53;;;;;;;;;;5007666;28;20129;-71
2022/02/03 01:07:35;;;;;;;8.80;2.55;;;;;;;;;;5007564;28;20125;-71
2022/02/03 01:10:09;;;;;;;7.20;2.50;;;;;;;;;;5006404;28;20050;-71
2022/02/03 01:12:48;;;;;;;5.45;2.33;;;;;;;;;;5007200;28;20129;-71
2022/02/03 01:15:24;;;;;;;4.95;2.10;;;;;;;;;;5010178;28;20107;-71
2022/02/03 01:18:06;;;;;;;5.03;2.38;;;;;;;;;;5017242;28;20111;-71
2022/02/03 01:34:38;;;;;;;4.50;2.60;;;;;;;;;;5027311;28;20060;-71
2022/02/03 01:37:17;;;;;;;4.53;2.70;;;;;;;;;;5023989;28;20494;-71
2022/02/03 01:45:50;;;;;;;5.95;2.42;;;;;;;;;;5005484;28;20482;-71
2022/02/03 01:48:23;;;;;;;6.07;2.33;;;;;;;;;;4997127;28;20073;-71
2022/02/03 01:53:41;;;;;;;4.80;2.25;;;;;;;;;;5006912;28;20054;-71
2022/02/03 01:56:11;;;;;;;5.00;2.53;;;;;;;;;;5023955;28;20072;-71
2022/02/03 01:58:49;;;;;;;5.63;2.20;;;;;;;;;;5031432;28;20049;-71
2022/02/03 02:01:22;;;;;;;7.90;2.22;;;;;;;;;;5029270;28;20549;-71
2022/02/03 02:03:52;;;;;;;4.63;2.33;;;;;;;;;;5031057;28;20333;-71
2022/02/03 02:06:35;;;;;;;6.10;2.80;;;;;;;;;;5024828;28;20493;-71
2022/02/03 02:09:06;;;;;;;4.20;2.10;;;;;;;;;;5029758;28;20053;-71
2022/02/03 02:11:46;;;;;;;3.60;2.13;;;;;;;;;;4967876;28;20122;-71
2022/02/03 02:17:49;;;;;;;6.68;2.58;;;;;;;;;;4962199;28;20514;-71
2022/02/03 02:37:24;;;;;;;6.38;2.85;;;;;;;;;;5011389;28;20085;-71
2022/02/03 02:40:06;;;;;;;5.03;2.65;;;;;;;;;;5026499;28;20361;-71
2022/02/03 02:42:40;;;;;;;3.90;2.55;;;;;;;;;;5028319;28;20136;-71
2022/02/03 02:45:09;;;;;;;5.60;2.95;;;;;;;;;;5026501;28;20076;-71
2022/02/03 02:47:46;;;;;;;5.82;2.95;;;;;;;;;;5028171;28;20052;-71
2022/02/03 02:50:16;;;;;;;3.65;2.60;;;;;;;;;;5028102;28;20037;-71
2022/02/03 02:52:51;;;;;;;4.68;2.38;;;;;;;;;;5028914;28;20185;-71
2022/02/03 02:55:32;;;;;;;4.55;2.22;;;;;;;;;;5027340;28;20140;-71
2022/02/03 03:32:16;;;;;;;4.68;2.65;;;;;;;;;;5003562;28;20160;-71
2022/02/03 03:37:41;;;;;;;4.18;2.90;;;;;;;;;;4996031;28;20273;-71
2022/02/03 03:40:10;;;;;;;7.70;3.00;;;;;;;;;;5006842;28;20132;-71
2022/02/03 03:42:43;;;;;;;5.50;2.85;;;;;;;;;;5008714;28;20053;-71
2022/02/03 03:45:12;;;;;;;7.30;2.92;;;;;;;;;;5007017;28;20054;-71
2022/02/03 03:47:43;;;;;;;5.93;2.70;;;;;;;;;;5001387;28;20497;-71
2022/02/03 03:50:14;;;;;;;7.40;2.90;;;;;;;;;;5006212;28;20046;-71
2022/02/03 03:52:49;;;;;;;7.57;2.97;;;;;;;;;;5007162;28;20038;-71
2022/02/03 03:55:30;;;;;;;4.90;2.85;;;;;;;;;;5006395;28;20057;-71
2022/02/03 04:01:00;;;;;;;5.47;3.00;;;;;;;;;;4994008;28;20074;-71
2022/02/03 04:29:34;;;;;;;5.30;3.08;;;;;;;;;;5005988;28;20401;-71
2022/02/03 04:38:14;;;;;;;7.03;2.88;;;;;;;;;;5007319;28;20072;-71
2022/02/03 04:44:17;;;;;;;4.57;2.53;;;;;;;;;;4986906;28;20084;-71
2022/02/03 04:56:27;;;;;;;4.85;2.00;;;;;;;;;;5091159;27;20506;-69
2022/02/03 05:02:06;;;;;;;6.45;2.20;;;;;;;;;;5064653;28;20317;-71
2022/02/03 05:04:43;;;;;;;3.58;2.13;;;;;;;;;;5069628;28;20086;-71
2022/02/03 05:07:30;;;;;;;8.30;3.15;;;;;;;;;;5065881;28;20120;-71
2022/02/03 05:10:18;;;;;;;4.47;2.17;;;;;;;;;;5060281;28;20128;-71
2022/02/03 05:13:29;;;;;;;5.72;2.10;;;;;;;;;;5062822;28;20451;-71
2022/02/03 05:16:19;;;;;;;5.15;2.33;;;;;;;;;;5062774;28;20553;-71
2022/02/03 05:19:09;;;;;;;3.38;1.70;;;;;;;;;;5071048;28;20508;-71
2022/02/03 05:22:21;;;;;;;2.78;1.60;;;;;;;;;;5064935;28;20053;-71
2022/02/03 05:42:45;;;;;;;2.65;1.63;;;;;;;;;;5055912;28;20131;-71
2022/02/03 05:45:54;;;;;;;2.10;1.40;;;;;;;;;;5065178;28;20049;-71
2022/02/03 05:48:43;;;;;;;3.78;1.70;;;;;;;;;;5065840;28;20066;-71
2022/02/03 06:03:03;;;;;;;2.65;1.73;;;;;;;;;;5062619;28;20113;-71
2022/02/03 06:05:48;;;;;;;4.88;1.80;;;;;;;;;;5057792;28;20138;-72
2022/02/03 06:08:22;;;;;;;;;;;;;;;;;;5048553;28;20106;-71
2022/02/03 06:13:44;;;;;;;3.13;1.63;;;;;;;;;;5042639;28;20123;-71
2022/02/03 06:16:34;;;;;;;;;;;;;;;;;;5045158;28;20065;-71
2022/02/03 06:21:57;;;;;;;3.80;2.00;;;;;;;;;;5022130;28;20135;-72
2022/02/03 06:24:35;;;;;;;3.60;1.48;;;;;;;;;;5044722;28;20049;-72
2022/02/03 06:29:55;;;;;;;2.97;1.60;;;;;;;;;;5049429;28;20123;-72
2022/02/03 06:32:23;;;;;;;4.70;1.77;;;;;;;;;;5050949;28;20059;-72
2022/02/03 06:34:52;;;;;;;3.65;1.40;;;;;;;;;;5049552;28;20091;-72
2022/02/03 06:37:22;;;;;;;2.83;1.60;;;;;;;;;;5049195;28;20160;-72
2022/02/03 06:39:50;;;;;;;2.60;1.10;;;;;;;;;;5050647;28;20167;-72
2022/02/03 06:42:19;;;;;;;5.93;1.73;;;;;;;;;;5049022;28;20059;-72
2022/02/03 06:44:51;;;;;;;5.65;1.48;;;;;;;;;;5050764;28;20064;-72
2022/02/03 06:47:27;;;;;;;5.00;1.50;;;;;;;;;;5048720;28;20060;-72
2022/02/03 06:50:01;;;;;;;5.35;1.58;;;;;;;;;;5041667;28;20461;-72
2022/02/03 06:52:44;;;;;;;2.47;1.17;;;;;;;;;;5049062;28;20041;-72
2022/02/03 06:55:17;;;;;;;2.15;1.25;;;;;;;;;;5047021;28;20104;-72
2022/02/03 06:57:52;;;;;;;2.55;1.55;;;;;;;;;;5043128;28;20046;-72
2022/02/03 07:00:23;;;;;;;;;;;;;;;;;;5048277;28;20041;-72
2022/02/03 07:02:55;;;;;;;1.55;1.08;;;;;;;;;;5049901;28;19967;-72
2022/02/03 07:05:23;;;;;;;2.55;1.63;;;;;;;;;;5046883;28;20441;-72
2022/02/03 07:07:54;;;;;;;2.92;1.65;;;;;;;;;;5046891;28;20131;-72
2022/02/03 07:10:22;;;;;;;3.38;1.50;;;;;;;;;;5042901;28;20083;-72
2022/02/03 07:12:51;;;;;;;3.80;1.40;;;;;;;;;;5045306;28;20080;-72
2022/02/03 07:15:19;;;;;;;2.08;1.38;;;;;;;;;;5049788;28;20477;-72
2022/02/03 07:17:47;;;;;;;3.03;1.45;;;;;;;;;;5060775;28;20053;-72
2022/02/03 07:20:18;;;;;;;2.10;1.08;;;;;;;;;;5050863;28;20080;-72
2022/02/03 07:22:47;;;;;;;3.60;1.77;;;;;;;;;;5048648;28;20551;-72
2022/02/03 07:25:16;;;;;;;3.30;1.52;;;;;;;;;;5049900;28;20053;-72
2022/02/03 07:27:46;;;;;;;3.97;1.63;;;;;;;;;;5048184;28;20508;-72
2022/02/03 07:30:15;;;;;;;4.22;1.17;;;;;;;;;;4957854;28;20059;-73
2022/02/03 07:32:44;;;;;;;3.47;1.60;;;;;;;;;;341769;28;10022822;-72
2022/02/03 07:35:12;;;;;;;2.03;1.60;;;;;;;;;;5006385;28;20049;-72
2022/02/03 07:37:45;;;;;;;2.85;1.52;;;;;;;;;;5008159;28;20046;-72
2022/02/03 07:40:14;;;;;;;2.85;1.60;;;;;;;;;;5008396;28;20050;-72
2022/02/03 07:42:46;;;;;;;4.18;1.88;;;;;;;;;;5008229;28;20045;-72
2022/02/03 07:45:16;;;;;;;3.95;1.65;;;;;;;;;;5002255;28;20472;-72
2022/02/03 07:47:45;;;;;;;3.72;1.38;;;;;;;;;;5006140;28;20151;-72
2022/02/03 07:50:14;;;;;;;3.75;1.70;;;;;;;;;;5004769;28;20065;-72
2022/02/03 07:52:42;;;;;;;4.78;1.75;;;;;;;;;;5007871;28;20486;-72
2022/02/03 07:55:11;;;;;;;4.38;1.98;;;;;;;;;;5001661;28;20046;-72
2022/02/03 07:57:45;;;;;;;2.85;1.40;;;;;;;;;;4999080;28;20053;-72
2022/02/03 08:00:14;;;;;;;4.15;1.77;;;;;;;;;;4992504;28;20510;-72
2022/02/03 08:03:05;;;;;;;2.13;1.42;;;;;;;;;;5000069;28;20050;-72
2022/02/03 08:05:35;;;;;;;4.18;1.45;;;;;;;;;;5003848;28;20433;-72
2022/02/03 08:08:11;;;;;;;2.42;1.42;;;;;;;;;;5002214;28;20204;-72
2022/02/03 08:10:44;;;;;;;3.38;1.60;;;;;;;;;;4995251;28;20053;-72
2022/02/03 08:13:19;;;;;;;2.97;1.58;;;;;;;;;;5006725;28;20054;-72
2022/02/03 08:15:55;;;;;;;4.93;2.30;;;;;;;;;;5008597;28;20057;-72
2022/02/03 08:18:23;;;;;;;3.28;1.88;;;;;;;;;;5006636;28;20073;-72
2022/02/03 08:20:58;;;;;;;4.93;1.83;;;;;;;;;;5003668;28;20046;-72
2022/02/03 08:24:10;;;;;;;5.25;1.76;;;;;;;;;;2934158;28;10003223;-72
2022/02/03 08:27:08;;;;;;;4.80;1.83;;;;;;;;;;3626454;28;10001148;-72
2022/02/03 08:32:45;;;;;;;5.88;1.63;;;;;;;;;;4922125;29;20087;-72
2022/02/03 08:35:23;;;;;;;5.25;1.95;;;;;;;;;;4928993;28;20078;-72
2022/02/03 08:38:02;;;;;;;2.97;1.92;;;;;;;;;;4970582;28;20053;-72
2022/02/03 08:40:43;;;;;;;3.13;1.77;;;;;;;;;;5004238;28;20050;-72
2022/02/03 08:43:12;;;;;;;3.45;1.73;;;;;;;;;;4994947;28;20142;-72
2022/02/03 08:45:43;;;;;;;3.63;2.03;;;;;;;;;;5003409;28;20549;-72
2022/02/03 08:48:14;;;;;;;3.00;1.63;;;;;;;;;;4992738;28;20532;-72
2022/02/03 08:50:43;;;;;;;4.85;1.80;;;;;;;;;;5003500;28;20042;-72
2022/02/03 08:53:17;;;;;;;3.28;1.88;;;;;;;;;;5003887;28;20056;-72
2022/02/03 08:55:55;;;;;;;5.03;2.10;;;;;;;;;;4994022;28;20128;-72
2022/02/03 09:38:06;;;;;;;4.55;1.70;;;;;;;;;;4969925;28;20046;-72
2022/02/03 09:40:53;;;;;;;3.50;2.00;;;;;;;;;;4994226;28;20061;-72
2022/02/03 09:54:48;;;;;;;2.55;1.65;;;;;;;;;;5008750;28;20081;-72
2022/02/03 09:57:31;;;;;;;2.38;1.50;;;;;;;;;;5006911;28;20038;-72
2022/02/03 10:00:15;;;;;;;4.30;2.00;;;;;;;;;;5004646;28;20054;-72
2022/02/03 10:02:56;;;;;;;3.65;2.00;;;;;;;;;;5009962;28;20057;-72
2022/02/03 10:05:35;;;;;;;3.28;1.65;;;;;;;;;;5010626;28;20100;-72
2022/02/03 10:08:06;;;;;;;2.38;1.55;;;;;;;;;;5006724;28;20053;-72
2022/02/03 10:10:46;;;;;;;2.95;1.63;;;;;;;;;;5008177;28;20042;-72
2022/02/03 10:13:19;;;;;;;3.65;2.10;;;;;;;;;;5007010;28;20096;-72
2022/02/03 10:15:48;;;;;;;2.63;1.60;;;;;;;;;;5000157;28;20045;-72
2022/02/03 10:18:27;;;;;;;2.55;1.50;;;;;;;;;;5006622;28;20148;-72
2022/02/03 10:20:57;;;;;;;3.10;1.70;;;;;;;;;;5009454;28;20061;-72
2022/02/03 10:23:29;;;;;;;2.53;1.50;;;;;;;;;;5009201;28;20046;-72
2022/02/03 10:26:06;;;;;;;2.78;1.55;;;;;;;;;;5002982;28;20041;-72
2022/02/03 10:28:37;;;;;;;3.78;1.83;;;;;;;;;;5008143;28;20066;-72
2022/02/03 10:31:10;;;;;;;1.90;1.17;;;;;;;;;;5004601;28;20192;-72
2022/02/03 10:33:41;;;;;;;3.63;1.40;;;;;;;;;;5006803;28;20049;-72
2022/02/03 10:36:19;;;;;;;2.25;1.67;;;;;;;;;;5002267;28;20046;-72
2022/02/03 10:39:16;;;;;;;5.13;1.83;;;;;;;;;;5002491;28;20710;-72
2022/02/03 10:42:13;;;;;;;3.05;1.42;;;;;;;;;;5003651;28;20147;-72
2022/02/03 10:47:52;;;;;;;2.08;1.20;;;;;;;;;;5004696;28;20078;-72
2022/02/03 10:56:05;;;;;;;1.90;1.30;;;;;;;;;;4983820;28;20050;-71
2022/02/03 11:02:03;;;;;;;3.00;1.80;;;;;;;;;;4982851;28;20498;-71
2022/02/03 11:05:08;;;;;;;2.67;1.13;;;;;;;;;;5002205;28;20482;-71
2022/02/03 11:07:46;;;;;;;1.98;1.23;;;;;;;;;;5000242;28;20065;-71
2022/02/03 11:10:26;;;;;;;2.20;1.15;;;;;;;;;;5002418;28;20482;-71
2022/02/03 11:12:56;;;;;;;2.00;1.10;;;;;;;;;;4999780;28;20085;-71
2022/02/03 11:15:26;;;;;;;1.02;0.88;;;;;;;;;;4999202;28;20058;-71
2022/02/03 11:17:57;;;;;;;1.73;1.08;;;;;;;;;;5002901;28;20560;-72
2022/02/03 11:20:27;;;;;;;1.55;1.10;;;;;;;;;;5004716;28;20449;-72
2022/02/03 11:23:08;;;;;;;1.48;1.13;;;;;;;;;;5002931;28;20038;-72
2022/02/03 11:25:53;;;;;;;1.45;0.90;;;;;;;;;;4992986;28;20092;-72
2022/02/03 11:28:55;;;;;;;1.27;0.90;;;;;;;;;;5009943;28;20412;-72
2022/02/03 11:37:34;;;;;;;1.50;0.88;;;;;;;;;;4972793;28;20050;-72
2022/02/03 11:43:52;;;;;;;1.57;0.98;;;;;;;;;;2654475;28;10004439;-72
2022/02/03 11:49:26;;;;;;;3.90;1.85;;;;;;;;;;5003300;28;20399;-72
2022/02/03 11:55:18;;;;;;;1.58;1.10;;;;;;;;;;4974517;28;20054;-72
2022/02/03 12:00:56;;;;;;;1.40;0.98;;;;;;;;;;5002763;28;20050;-72
2022/02/03 12:12:40;;;;;;;1.52;0.88;;;;;;;;;;5075763;27;20057;-72
2022/02/03 12:18:15;;;;;;;2.03;0.90;;;;;;;;;;5038120;28;20041;-72
2022/02/03 12:20:50;;;;;;;1.48;0.80;;;;;;;;;;5045917;28;20477;-72
2022/02/03 12:23:38;;;;;;;1.33;0.82;;;;;;;;;;5034207;28;20053;-72
2022/02/03 12:26:13;;;;;;;1.35;0.95;;;;;;;;;;5023975;28;20104;-74
2022/02/03 12:28:50;;;;;;;1.33;0.80;;;;;;;;;;5034913;28;20049;-72
2022/02/03 12:39:50;;;;;;;1.85;1.08;;;;;;;;;;5024999;28;20073;-72
2022/02/03 12:42:23;;;;;;;2.75;1.20;;;;;;;;;;5024275;28;20136;-72
2022/02/03 12:45:01;;;;;;;5.03;1.50;;;;;;;;;;5033795;28;20112;-72
2022/02/03 12:47:31;;;;;;;1.05;0.82;;;;;;;;;;5023444;28;20054;-72
2022/02/03 12:50:00;;;;;;;1.30;0.98;;;;;;;;;;5024896;28;20049;-73
2022/02/03 12:52:31;;;;;;;1.42;1.00;;;;;;;;;;5028866;28;20056;-72
2022/02/03 12:55:01;;;;;;;0.90;0.80;;;;;;;;;;5036512;28;20590;-73
2022/02/03 12:57:31;;;;;;;1.95;1.10;;;;;;;;;;5042008;28;20045;-72
2022/02/03 13:00:27;;;;;;;1.48;0.90;;;;;;;;;;5036535;28;20045;-72
2022/02/03 13:03:17;;;;;;;2.53;0.95;;;;;;;;;;5032490;28;20057;-72
2022/02/03 13:05:53;;;;;;;2.08;1.17;;;;;;;;;;5030278;28;20058;-72
2022/02/03 13:08:32;;;;;;;2.53;0.85;;;;;;;;;;5033736;28;20058;-72
2022/02/03 13:11:11;;;;;;;1.10;0.88;;;;;;;;;;5031446;28;20129;-72
2022/02/03 13:13:52;;;;;;;1.35;0.65;;;;;;;;;;5032751;28;20128;-72
2022/02/03 13:16:31;;;;;;;1.84;0.66;;;;;;;;;;4949536;28;10002146;-73
2022/02/03 13:19:07;;;;;;;2.20;0.50;;;;;;;;;;687333;28;10002021;-72
2022/02/03 13:21:49;;;;;;;2.55;0.98;;;;;;;;;;5002783;28;20049;-72
2022/02/03 13:27:13;;;;;;;1.58;0.77;;;;;;;;;;4999961;28;20046;-72
2022/02/03 13:29:54;;;;;;;0.93;0.60;;;;;;;;;;4994928;28;20055;-72
2022/02/03 13:32:28;;;;;;;0.75;0.50;;;;;;;;;;4999350;28;20120;-72
2022/02/03 13:35:02;;;;;;;0.50;0.50;;;;;;;;;;5000713;28;20049;-72
2022/02/03 13:37:38;;;;;;;1.25;0.68;;;;;;;;;;5007811;28;20394;-72
2022/02/03 13:40:17;;;;;;;3.33;0.85;;;;;;;;;;4996098;28;20133;-72
2022/02/03 13:42:49;;;;;;;1.77;0.85;;;;;;;;;;5008629;28;20049;-72
2022/02/03 13:45:21;;;;;;;1.50;0.90;;;;;;;;;;4995300;28;20112;-72
2022/02/03 13:47:51;;;;;;;1.80;0.90;;;;;;;;;;4997491;28;20058;-73
2022/02/03 13:50:23;;;;;;;1.45;1.00;;;;;;;;;;4993872;28;20050;-72
2022/02/03 13:52:57;;;;;;;2.75;1.08;;;;;;;;;;4996574;28;20077;-73
2022/02/03 14:15:34;;;;;;;3.88;1.38;;;;;;;;;;4996910;28;20058;-72
2022/02/03 14:18:17;;;;;;;2.67;1.50;;;;;;;;;;4996231;28;20460;-73
2022/02/03 14:20:48;;;;;;;3.40;1.65;;;;;;;;;;4995578;28;20045;-72
2022/02/03 14:28:53;;;;;;;1.25;0.90;;;;;;;;;;4990158;28;20054;-72
2022/02/03 14:31:24;;;;;;;3.70;1.50;;;;;;;;;;4993335;28;20498;-73
2022/02/03 14:34:06;;;;;;;5.03;1.55;;;;;;;;;;1547552;28;10023599;-74
2022/02/03 14:36:36;;;;;;;2.30;1.02;;;;;;;;;;3954766;28;10001341;-72
2022/02/03 14:39:13;;;;;;;1.80;1.20;;;;;;;;;;4985824;28;20746;-72
2022/02/03 14:41:46;;;;;;;2.60;1.17;;;;;;;;;;4989569;28;20050;-72
2022/02/03 14:44:19;;;;;;;3.05;1.10;;;;;;;;;;4998322;28;20061;-72
2022/02/03 14:46:49;;;;;;;2.30;0.80;;;;;;;;;;4997041;28;20057;-72
2022/02/03 14:49:19;;;;;;;1.35;0.95;;;;;;;;;;4998466;28;20081;-72
2022/02/03 14:51:54;;;;;;;1.83;0.75;;;;;;;;;;4989340;28;20078;-72
2022/02/03 15:00:00;;;;;;;1.58;0.70;;;;;;;;;;4994994;28;20046;-73
2022/02/03 15:02:30;;;;;;;3.30;0.85;;;;;;;;;;5005634;28;20360;-71
2022/02/03 15:05:06;;;;;;;2.83;0.98;;;;;;;;;;5004034;28;20160;-72
2022/02/03 15:07:40;;;;;;;1.55;0.80;;;;;;;;;;5004576;28;20049;-72
2022/02/03 15:10:41;;;;;;;2.30;0.70;;;;;;;;;;5005530;28;20516;-72
2022/02/03 15:13:14;;;;;;;1.77;0.85;;;;;;;;;;4999790;28;20113;-72
2022/02/03 15:15:43;;;;;;;2.40;0.88;;;;;;;;;;5003021;28;20453;-72
2022/02/03 15:18:17;;;;;;;1.83;0.98;;;;;;;;;;5003333;28;20105;-72
2022/02/03 15:20:46;;;;;;;1.40;0.90;;;;;;;;;;5002015;28;20060;-72
2022/02/03 15:23:15;;;;;;;1.65;0.85;;;;;;;;;;4991479;28;20057;-72
2022/02/03 15:25:43;;;;;;;2.00;0.93;;;;;;;;;;5000596;28;20397;-72
2022/02/03 15:28:12;;;;;;;2.20;0.75;;;;;;;;;;4995756;28;20072;-72
2022/02/03 15:30:41;;;;;;;3.95;0.70;;;;;;;;;;5003109;28;20050;-72
2022/02/03 15:33:11;;;;;;;4.53;1.10;;;;;;;;;;4997878;28;20038;-72
2022/02/03 15:35:45;;;;;;;1.75;0.93;;;;;;;;;;4998026;28;20066;-72
2022/02/03 15:38:19;;;;;;;5.15;1.10;;;;;;;;;;5002320;28;20461;-72
2022/02/03 15:40:50;;;;;;;4.95;1.23;;;;;;;;;;4992466;28;20486;-73
2022/02/03 15:43:26;;;;;;;3.92;1.20;;;;;;;;;;4997978;28;20046;-73
2022/02/03 15:45:59;;;;;;;2.10;0.98;;;;;;;;;;4998466;28;20799;-73
2022/02/03 15:48:39;;;;;;;5.07;1.05;;;;;;;;;;4996985;28;20057;-73
2022/02/03 15:56:11;;;;;;;2.17;1.02;;;;;;;;;;4994922;28;20161;-73
2022/02/03 15:57:15;;;;;;;3.47;0.80;;;;;;;;;;4993390;28;20383;-73
2022/02/03 16:14:31;;;;;;;2.10;1.30;;;;;;;;;;4933122;28;20062;-73
2022/02/03 16:16:55;;;;;;;3.75;1.10;;;;;;;;;;4937014;28;20162;-73
2022/02/03 16:19:32;;;;;;;2.67;0.90;;;;;;;;;;4931778;28;20510;-73
2022/02/03 16:22:06;;;;;;;3.95;1.35;;;;;;;;;;4941834;28;20416;-73
2022/02/03 16:24:48;;;;;;;3.03;1.10;;;;;;;;;;4938133;28;20130;-73
2022/02/03 16:52:43;;;;;;;2.92;1.20;;;;;;;;;;5001391;28;20081;-73
2022/02/03 16:55:16;;;;;;;4.63;1.55;;;;;;;;;;4999919;28;20042;-74
2022/02/03 16:57:48;;;;;;;2.67;1.40;;;;;;;;;;5006743;28;20085;-74
2022/02/03 17:00:18;;;;;;;5.90;1.58;;;;;;;;;;5009885;28;20046;-73
2022/02/03 17:02:58;;;;;;;5.00;1.30;;;;;;;;;;5001814;28;20133;-74
2022/02/03 17:05:27;;;;;;;3.47;1.48;;;;;;;;;;5002916;28;20045;-73
2022/02/03 17:07:58;;;;;;;13.18;1.30;;;;;;;;;;5008077;28;20070;-73
2022/02/03 17:10:36;;;;;;;4.63;1.55;;;;;;;;;;5006446;28;20527;-73
2022/02/03 17:13:09;;;;;;;4.00;1.02;;;;;;;;;;5003030;28;20049;-74
2022/02/03 17:15:42;;;;;;;2.53;1.17;;;;;;;;;;5009710;28;20481;-74
2022/02/03 17:18:13;;;;;;;4.68;1.05;;;;;;;;;;5010238;28;20437;-74
2022/02/03 17:20:43;;;;;;;2.97;0.57;;;;;;;;;;5009571;28;20132;-73
2022/02/03 17:23:16;;;;;;;3.83;1.35;;;;;;;;;;5011014;28;20482;-74
2022/02/03 17:25:50;;;;;;;1.60;0.93;;;;;;;;;;5007247;28;20054;-73
2022/02/03 17:28:46;;;;;;;6.10;1.38;;;;;;;;;;5006733;28;20049;-73
2022/02/03 17:31:21;;;;;;;6.47;1.23;;;;;;;;;;5002909;28;20050;-74
2022/02/03 18:10:51;;;;;;;3.90;1.55;;;;;;;;;;5003923;28;20580;-74
2022/02/03 18:30:21;;;;;;;2.50;1.10;;;;;;;;;;5001851;28;20058;-73
2022/02/03 18:35:51;;;;;;;2.53;1.55;;;;;;;;;;5006137;28;20050;-73
2022/02/03 18:52:17;;;;;;;;;;;;;;;;;;5002436;28;20058;-73
2022/02/03 18:55:06;;;;;;;4.70;1.60;;;;;;;;;;4999750;28;19925;-74
2022/02/03 18:57:52;;;;;;;5.53;1.98;;;;;;;;;;5006970;28;20081;-74
2022/02/03 20:04:56;;;;;;;5.32;2.47;;;;;;;;;;4992396;28;20065;-73
2022/02/03 20:07:31;;;;;;;7.60;2.80;;;;;;;;;;4998080;28;20495;-73
2022/02/03 20:10:13;;;;;;;6.55;2.63;;;;;;;;;;4990290;28;20046;-72
2022/02/03 20:12:42;;;;;;;4.95;2.60;;;;;;;;;;5006905;28;20038;-72
2022/02/03 20:15:12;;;;;;;4.80;2.20;;;;;;;;;;5003261;28;20157;-73
2022/02/03 20:17:42;;;;;;;5.20;2.20;;;;;;;;;;5008180;28;20126;-73
2022/02/03 20:20:11;;;;;;;9.77;2.42;;;;;;;;;;5002084;28;20405;-73
2022/02/03 20:22:40;;;;;;;4.05;2.20;;;;;;;;;;5005150;28;20082;-73
2022/02/03 20:25:13;;;;;;;4.28;2.40;;;;;;;;;;5006788;28;20068;-73
2022/02/03 20:27:42;;;;;;;4.13;1.80;;;;;;;;;;5006901;28;20117;-73
2022/02/03 20:30:13;;;;;;;7.47;2.38;;;;;;;;;;5011286;28;20135;-73
2022/02/03 20:32:43;;;;;;;4.45;2.13;;;;;;;;;;5010390;28;20078;-73
2022/02/03 20:35:12;;;;;;;5.07;2.15;;;;;;;;;;5008814;28;20064;-73
2022/02/03 20:37:41;;;;;;;7.28;2.15;;;;;;;;;;5009600;28;20374;-73
2022/02/03 20:40:10;;;;;;;3.75;2.08;;;;;;;;;;5012196;28;20490;-73
2022/02/03 20:42:40;;;;;;;5.10;2.00;;;;;;;;;;5010316;28;20096;-73
2022/02/03 20:45:08;;;;;;;4.68;2.15;;;;;;;;;;5010262;28;20123;-72
2022/02/03 20:47:37;;;;;;;5.30;2.17;;;;;;;;;;5001773;28;20112;-72
2022/02/03 20:50:09;;;;;;;5.22;2.67;;;;;;;;;;5010003;28;20050;-73
2022/02/03 20:52:37;;;;;;;3.45;2.35;;;;;;;;;;5008810;28;20070;-73
2022/02/03 20:55:06;;;;;;;4.95;2.30;;;;;;;;;;5011118;28;20566;-73
2022/02/03 20:57:36;;;;;;;8.07;2.00;;;;;;;;;;5004241;28;20058;-73
2022/02/03 21:02:53;;;;;;;5.55;2.65;;;;;;;;;;5006590;28;20173;-73
2022/02/03 21:05:24;;;;;;;2.90;2.03;;;;;;;;;;4615910;28;10002099;-74
2022/02/03 21:07:53;;;;;;;4.38;2.28;;;;;;;;;;688846;28;10002024;-73
2022/02/03 21:10:26;;;;;;;4.75;2.47;;;;;;;;;;5004941;28;20037;-72
2022/02/03 21:12:55;;;;;;;4.68;1.98;;;;;;;;;;5000541;28;20060;-73
2022/02/03 21:15:27;;;;;;;5.55;2.33;;;;;;;;;;5002151;28;20101;-73
2022/02/03 21:18:00;;;;;;;5.25;2.50;;;;;;;;;;5004780;28;21322;-73
2022/02/03 21:20:31;;;;;;;5.65;2.50;;;;;;;;;;5003833;28;20686;-72
2022/02/03 21:23:00;;;;;;;4.65;2.30;;;;;;;;;;5003892;28;20056;-72
2022/02/03 21:25:32;;;;;;;6.28;2.33;;;;;;;;;;5001345;28;20053;-72
2022/02/03 21:28:07;;;;;;;4.43;2.63;;;;;;;;;;5003664;28;20409;-72
2022/02/03 21:30:36;;;;;;;8.68;3.30;;;;;;;;;;5002925;28;20060;-72
2022/02/03 21:33:06;;;;;;;6.35;2.40;;;;;;;;;;4999071;28;20053;-72
2022/02/03 21:35:36;;;;;;;3.72;2.35;;;;;;;;;;5002491;28;20180;-72
2022/02/03 21:38:06;;;;;;;4.75;2.50;;;;;;;;;;5002249;28;20045;-72
2022/02/03 21:40:35;;;;;;;5.10;2.40;;;;;;;;;;5005522;28;20041;-72
2022/02/03 21:43:04;;;;;;;6.32;3.03;;;;;;;;;;5006022;28;20053;-72
2022/02/03 21:45:35;;;;;;;7.55;2.30;;;;;;;;;;5006504;28;20466;-72
2022/02/03 21:48:05;;;;;;;9.32;2.53;;;;;;;;;;4992969;28;20054;-72
2022/02/03 21:50:36;;;;;;;6.20;2.83;;;;;;;;;;4992926;28;20354;-72
2022/02/03 21:53:15;;;;;;;5.85;2.50;;;;;;;;;;4988632;28;20184;-72
2022/02/03 21:55:44;;;;;;;5.90;2.53;;;;;;;;;;4991114;28;20045;-72
2022/02/03 21:58:14;;;;;;;4.15;2.67;;;;;;;;;;5000732;28;20611;-72
2022/02/03 22:00:43;;;;;;;4.80;2.53;;;;;;;;;;4997523;28;20545;-72
2022/02/03 22:03:12;;;;;;;5.50;2.60;;;;;;;;;;4997298;28;20054;-72
2022/02/03 22:05:41;;;;;;;4.50;2.13;;;;;;;;;;5008842;28;20538;-72
2022/02/03 22:08:16;;;;;;;8.55;2.50;;;;;;;;;;3207572;28;10021459;-72
2022/02/03 22:10:44;;;;;;;9.13;3.22;;;;;;;;;;2581336;28;10001929;-72
2022/02/03 22:13:13;;;;;;;6.68;2.95;;;;;;;;;;5007088;28;20402;-72
2022/02/03 22:15:42;;;;;;;6.07;2.72;;;;;;;;;;5006915;28;20050;-72
2022/02/03 22:18:14;;;;;;;5.63;2.67;;;;;;;;;;4991928;28;20073;-72
2022/02/03 22:20:52;;;;;;;4.22;2.38;;;;;;;;;;4995714;28;20136;-72
2022/02/03 22:23:42;;;;;;;4.47;2.58;;;;;;;;;;5006779;28;20053;-72
2022/02/03 22:29:31;;;;;;;7.53;2.85;;;;;;;;;;5004133;28;20057;-72
2022/02/03 22:43:17;;;;;;;4.18;2.67;;;;;;;;;;4989585;28;20050;-72
2022/02/03 22:45:56;;;;;;;4.13;2.40;;;;;;;;;;4990446;28;20121;-72
2022/02/03 22:48:26;;;;;;;6.63;2.47;;;;;;;;;;4980954;28;20067;-72
2022/02/03 22:50:54;;;;;;;3.60;2.25;;;;;;;;;;4988353;28;20129;-72
2022/02/03 22:53:32;;;;;;;7.57;3.10;;;;;;;;;;4993751;28;20476;-72
2022/02/03 22:56:04;;;;;;;4.10;2.30;;;;;;;;;;5005100;28;20141;-72
2022/02/03 23:01:22;;;;;;;5.00;2.80;;;;;;;;;;4973476;28;20513;-72
2022/02/03 23:03:51;;;;;;;6.90;2.70;;;;;;;;;;4994475;28;20054;-72
2022/02/03 23:06:20;;;;;;;5.32;2.40;;;;;;;;;;5002165;28;20129;-72
2022/02/03 23:09:01;;;;;;;5.93;2.70;;;;;;;;;;4996406;28;20391;-72
2022/02/03 23:12:05;;;;;;;4.60;2.50;;;;;;;;;;4998835;28;20089;-72
2022/02/03 23:20:11;;;;;;;7.03;2.88;;;;;;;;;;4995962;28;20062;-72
2022/02/03 23:22:41;;;;;;;4.85;2.88;;;;;;;;;;5005330;28;20133;-72
2022/02/03 23:25:13;;;;;;;4.72;2.90;;;;;;;;;;4996655;28;20387;-72
2022/02/03 23:30:32;;;;;;;4.32;2.70;;;;;;;;;;4993907;28;20105;-72
2022/02/03 23:33:01;;;;;;;5.68;3.13;;;;;;;;;;5001773;28;20494;-72
2022/02/03 23:35:31;;;;;;;5.97;2.88;;;;;;;;;;4997250;28;20442;-72
2022/02/03 23:38:09;;;;;;;8.02;3.15;;;;;;;;;;5003110;28;20045;-72
2022/02/03 23:41:20;;;;;;;4.03;2.28;;;;;;;;;;4997375;28;20798;-72
2022/02/03 23:44:13;;;;;;;6.55;2.80;;;;;;;;;;4978838;28;20081;-72
